Aviation Digital Data Service (ADDS)

Output produced by TAFs form (0158 UTC 28 May 2015)
found at http://aviationweather.gov/adds/tafs/
 
KFMN 272339Z 2800/2824 24008KT P6SM BKN200 
     FM280200 06006KT P6SM BKN200 
     FM281800 27010KT P6SM SCT110